Time;durP1;ratioP1;P1;durP2;ratioP2;P2;SDS_P1;SDS_P2;PMS_P1;PMS_P2;Temp;Humidity;BMP_temperature;BMP_pressure;BME280_temperature;BME280_humidity;BME280_pressure;Samples;Min_cycle;Max_cycle;Signal;HPM_P1;HPM_P2
2022/11/26 00:00:45;;;;;;;11.73;4.60;;;6.40;99.90;;;;;;5023766;28;20041;-80
2022/11/26 00:03:12;;;;;;;8.65;4.57;;;6.30;99.90;;;;;;5033113;28;20103;-80
2022/11/26 00:05:39;;;;;;;8.10;4.82;;;6.70;99.90;;;;;;5012174;28;20072;-81
2022/11/26 00:08:20;;;;;;;10.15;4.90;;;6.30;99.90;;;;;;5012720;28;20091;-80
2022/11/26 00:10:49;;;;;;;13.18;5.97;;;6.30;99.90;;;;;;5020326;28;20048;-80
2022/11/26 00:13:17;;;;;;;8.68;4.68;;;6.30;99.90;;;;;;5019293;28;20083;-80
2022/11/26 00:15:43;;;;;;;7.38;5.30;;;7.00;99.90;;;;;;5002944;28;20065;-80
2022/11/26 00:18:09;;;;;;;14.43;7.68;;;6.50;99.90;;;;;;5014540;28;20045;-81
2022/11/26 00:20:34;;;;;;;7.47;5.18;;;6.30;99.90;;;;;;5003516;28;20076;-81
2022/11/26 00:23:03;;;;;;;12.13;4.82;;;6.30;99.90;;;;;;5018956;28;20053;-81
2022/11/26 00:25:44;;;;;;;6.63;4.72;;;6.30;99.90;;;;;;5014930;28;20058;-81
2022/11/26 00:28:35;;;;;;;10.60;5.22;;;6.20;99.90;;;;;;5014849;28;20053;-81
2022/11/26 00:31:06;;;;;;;9.70;4.45;;;6.20;99.90;;;;;;5017775;28;20038;-81
2022/11/26 00:33:32;;;;;;;10.80;5.90;;;6.20;99.90;;;;;;5022112;28;20049;-81
2022/11/26 00:36:16;;;;;;;14.95;6.55;;;6.30;99.90;;;;;;5020487;28;20243;-80
2022/11/26 00:38:42;;;;;;;14.13;5.38;;;6.20;99.90;;;;;;5013354;28;20056;-81
2022/11/26 00:41:17;;;;;;;9.02;5.45;;;6.80;99.90;;;;;;5014940;28;20100;-80
2022/11/26 00:43:44;;;;;;;11.30;6.70;;;6.20;99.90;;;;;;5009123;28;20068;-82
2022/11/26 00:46:13;;;;;;;7.78;5.25;;;6.20;99.90;;;;;;5016925;28;20037;-81
2022/11/26 00:48:39;;;;;;;14.07;5.50;;;6.40;99.90;;;;;;5019528;28;20193;-80
2022/11/26 00:51:05;;;;;;;12.00;5.80;;;6.30;99.90;;;;;;5014419;28;20045;-81
2022/11/26 00:53:30;;;;;;;8.63;5.70;;;6.20;99.90;;;;;;5012084;28;20042;-82
2022/11/26 00:55:56;;;;;;;12.65;5.95;;;6.20;99.90;;;;;;5019245;28;20076;-81
2022/11/26 00:58:22;;;;;;;16.85;7.07;;;6.20;99.90;;;;;;5016180;28;20048;-84
2022/11/26 01:00:48;;;;;;;12.55;5.88;;;6.90;99.90;;;;;;5022897;28;20162;-80
2022/11/26 01:03:13;;;;;;;12.43;5.80;;;6.40;99.90;;;;;;5010993;28;20046;-81
2022/11/26 01:05:39;;;;;;;8.43;5.80;;;6.20;99.90;;;;;;5017500;28;20653;-80
2022/11/26 01:08:20;;;;;;;13.88;6.68;;;6.20;99.90;;;;;;5008919;28;20057;-80
2022/11/26 01:10:46;;;;;;;14.50;6.13;;;6.20;99.90;;;;;;5014173;28;20055;-80
2022/11/26 01:13:11;;;;;;;8.90;4.85;;;6.20;99.90;;;;;;5014020;28;20049;-80
2022/11/26 01:15:37;;;;;;;12.35;6.38;;;6.20;99.90;;;;;;5012652;28;20088;-81
2022/11/26 01:18:18;;;;;;;10.52;5.05;;;6.20;99.90;;;;;;5014380;28;20730;-80
2022/11/26 01:20:45;;;;;;;12.32;6.57;;;6.20;99.90;;;;;;5013759;28;20128;-81
2022/11/26 01:23:14;;;;;;;12.50;6.15;;;6.80;99.90;;;;;;5014944;28;20056;-80
2022/11/26 01:25:40;;;;;;;10.80;6.80;;;6.10;99.90;;;;;;5016376;28;20156;-80
2022/11/26 01:28:11;;;;;;;8.23;4.88;;;6.20;99.90;;;;;;5017864;28;20897;-80
2022/11/26 01:30:37;;;;;;;13.32;6.15;;;6.20;99.90;;;;;;5017970;28;20103;-80
2022/11/26 01:33:03;;;;;;;12.55;6.40;;;6.20;99.90;;;;;;5017599;28;20049;-80
2022/11/26 01:35:28;;;;;;;8.75;5.80;;;6.90;99.90;;;;;;5016280;28;20045;-81
2022/11/26 01:37:55;;;;;;;13.48;6.70;;;6.10;99.90;;;;;;5015947;28;20049;-80
2022/11/26 01:40:41;;;;;;;8.95;5.82;;;6.70;99.90;;;;;;5014234;28;20125;-80
2022/11/26 01:43:16;;;;;;;10.32;5.53;;;6.00;99.90;;;;;;5021979;28;20041;-81
2022/11/26 01:45:42;;;;;;;9.90;5.68;;;6.00;99.90;;;;;;5018181;28;20050;-80
2022/11/26 01:48:26;;;;;;;10.70;7.28;;;6.00;99.90;;;;;;5017429;28;20053;-80
2022/11/26 01:51:04;;;;;;;11.85;7.15;;;6.00;99.90;;;;;;5022416;28;20148;-80
2022/11/26 01:53:37;;;;;;;11.82;6.60;;;5.90;99.90;;;;;;5010748;28;20049;-80
2022/11/26 01:56:36;;;;;;;12.30;5.78;;;5.90;99.90;;;;;;5018385;28;20048;-81
2022/11/26 01:59:27;;;;;;;10.70;6.40;;;5.80;99.90;;;;;;5015109;28;20046;-80
2022/11/26 02:01:56;;;;;;;8.40;5.05;;;5.80;99.90;;;;;;5016498;28;20041;-80
2022/11/26 02:04:26;;;;;;;15.60;7.28;;;5.80;99.90;;;;;;5017326;28;20052;-80
2022/11/26 02:06:54;;;;;;;11.85;6.57;;;5.80;99.90;;;;;;5017547;28;20061;-80
2022/11/26 02:09:21;;;;;;;6.25;4.97;;;5.80;99.90;;;;;;5015153;28;20057;-80
2022/11/26 02:11:47;;;;;;;10.80;6.00;;;5.70;99.90;;;;;;5017459;28;20576;-80
2022/11/26 02:14:18;;;;;;;11.10;6.68;;;5.70;99.90;;;;;;5010755;28;20042;-81
2022/11/26 02:17:16;;;;;;;8.73;6.13;;;5.70;99.90;;;;;;5017286;28;20056;-80
2022/11/26 02:20:03;;;;;;;11.55;6.75;;;5.70;99.90;;;;;;5010439;28;20055;-80
2022/11/26 02:22:51;;;;;;;12.60;7.32;;;5.70;99.90;;;;;;5015145;28;20056;-80
2022/11/26 02:25:55;;;;;;;9.30;6.32;;;5.70;99.90;;;;;;5017097;28;20060;-80
2022/11/26 02:28:56;;;;;;;9.43;5.57;;;5.70;99.90;;;;;;5015780;28;20073;-80
2022/11/26 02:31:44;;;;;;;12.25;5.97;;;5.70;99.90;;;;;;4991250;28;20534;-80
2022/11/26 02:34:23;;;;;;;7.35;5.32;;;5.80;99.90;;;;;;5017612;28;20064;-80
2022/11/26 02:37:06;;;;;;;10.55;6.47;;;5.70;99.90;;;;;;5016872;28;20111;-80
2022/11/26 02:39:32;;;;;;;10.80;5.57;;;5.70;99.90;;;;;;5015083;28;20049;-80
2022/11/26 02:42:01;;;;;;;15.32;6.85;;;5.60;99.90;;;;;;5016007;28;20043;-80
2022/11/26 02:44:41;;;;;;;7.82;6.38;;;5.50;99.90;;;;;;5007129;28;20831;-80
2022/11/26 02:47:15;;;;;;;12.20;7.30;;;6.40;99.90;;;;;;5016406;28;20060;-80
2022/11/26 02:49:43;;;;;;;11.02;7.60;;;5.60;99.90;;;;;;5016827;28;20048;-80
2022/11/26 02:52:10;;;;;;;13.63;7.35;;;5.50;99.90;;;;;;5015601;28;20064;-80
2022/11/26 02:54:37;;;;;;;10.43;7.00;;;5.50;99.90;;;;;;5015157;28;20057;-80
2022/11/26 02:57:06;;;;;;;7.88;6.93;;;6.70;99.90;;;;;;5016913;28;20068;-80
2022/11/26 02:59:33;;;;;;;11.05;7.97;;;5.50;99.90;;;;;;5016063;28;20042;-80
2022/11/26 03:02:05;;;;;;;15.40;7.80;;;5.50;99.90;;;;;;4994791;28;20053;-80
2022/11/26 03:04:37;;;;;;;14.65;8.05;;;6.70;99.90;;;;;;5019141;28;20060;-80
2022/11/26 03:07:06;;;;;;;10.98;7.28;;;5.40;99.90;;;;;;5013882;28;20101;-80
2022/11/26 03:09:41;;;;;;;12.73;7.45;;;5.40;99.90;;;;;;5014923;28;20694;-80
2022/11/26 03:12:07;;;;;;;18.23;8.00;;;5.90;99.90;;;;;;5011570;28;20682;-80
2022/11/26 03:14:33;;;;;;;12.32;7.18;;;5.40;99.90;;;;;;5017365;28;20111;-80
2022/11/26 03:16:58;;;;;;;16.42;8.40;;;5.50;99.90;;;;;;5012471;28;20064;-80
2022/11/26 03:19:24;;;;;;;10.38;7.53;;;6.10;99.90;;;;;;5004827;28;20462;-80
2022/11/26 03:21:50;;;;;;;9.98;7.05;;;5.40;99.90;;;;;;5018583;28;20053;-80
2022/11/26 03:24:15;;;;;;;15.60;8.18;;;6.20;99.90;;;;;;5023511;28;20068;-80
2022/11/26 03:26:41;;;;;;;8.57;5.97;;;5.40;99.90;;;;;;5011187;28;20049;-80
2022/11/26 03:29:07;;;;;;;12.02;6.57;;;5.50;99.90;;;;;;5018667;28;20112;-80
2022/11/26 03:31:32;;;;;;;12.57;7.75;;;5.50;99.90;;;;;;5024478;28;20065;-80
2022/11/26 03:33:58;;;;;;;11.73;8.05;;;6.10;99.90;;;;;;5024950;28;20037;-80
2022/11/26 03:36:23;;;;;;;15.07;8.52;;;5.40;99.90;;;;;;5010155;28;20053;-80
2022/11/26 03:38:49;;;;;;;13.85;7.90;;;5.40;99.90;;;;;;5019245;28;20053;-80
2022/11/26 03:41:15;;;;;;;16.00;8.88;;;5.90;99.90;;;;;;5018340;28;20057;-80
2022/11/26 03:43:40;;;;;;;15.15;8.57;;;5.50;99.90;;;;;;5021231;28;20045;-80
2022/11/26 03:46:06;;;;;;;13.00;9.80;;;5.50;99.90;;;;;;5018581;28;20784;-80
2022/11/26 03:48:32;;;;;;;13.63;8.18;;;5.90;99.90;;;;;;5022596;28;20583;-80
2022/11/26 03:50:57;;;;;;;9.82;7.13;;;5.50;99.90;;;;;;5018245;28;20892;-80
2022/11/26 03:53:23;;;;;;;12.60;8.93;;;5.50;99.90;;;;;;5019996;28;20045;-80
2022/11/26 03:55:48;;;;;;;16.23;8.98;;;5.50;99.90;;;;;;5018864;28;20183;-80
2022/11/26 03:58:14;;;;;;;11.43;7.45;;;6.30;99.90;;;;;;5024977;28;20049;-80
2022/11/26 04:00:40;;;;;;;14.55;8.25;;;5.50;99.90;;;;;;5018215;28;20033;-80
2022/11/26 04:03:06;;;;;;;16.08;9.20;;;6.60;99.90;;;;;;5024555;28;20057;-79
2022/11/26 04:05:31;;;;;;;12.65;7.70;;;5.50;99.90;;;;;;5016827;28;20519;-80
2022/11/26 04:07:57;;;;;;;12.43;8.80;;;5.50;99.90;;;;;;5027664;28;20050;-80
2022/11/26 04:10:23;;;;;;;18.70;9.60;;;5.80;99.90;;;;;;5019453;28;20151;-80
2022/11/26 04:12:49;;;;;;;16.50;8.27;;;5.50;99.90;;;;;;5014336;28;20045;-80
2022/11/26 04:15:14;;;;;;;10.60;7.45;;;5.40;99.90;;;;;;5020497;28;20067;-80
2022/11/26 04:17:40;;;;;;;18.50;7.82;;;5.50;99.90;;;;;;5018871;28;20056;-80
2022/11/26 04:20:06;;;;;;;12.90;8.80;;;5.50;99.90;;;;;;5018715;28;20048;-79
2022/11/26 04:22:32;;;;;;;14.48;8.77;;;5.50;99.90;;;;;;5017946;28;20119;-80
2022/11/26 04:24:58;;;;;;;14.23;8.80;;;5.40;99.90;;;;;;5022865;28;20041;-80
2022/11/26 04:27:23;;;;;;;10.10;6.85;;;5.90;99.90;;;;;;5021004;28;20049;-80
2022/11/26 04:29:49;;;;;;;20.17;8.48;;;6.20;99.90;;;;;;5020620;28;20045;-80
2022/11/26 04:32:14;;;;;;;13.00;7.75;;;5.40;99.90;;;;;;5017866;28;20164;-80
2022/11/26 04:34:40;;;;;;;14.98;9.38;;;5.40;99.90;;;;;;5015103;28;20076;-80
2022/11/26 04:37:06;;;;;;;13.88;9.20;;;5.40;99.90;;;;;;5011748;28;20227;-80
2022/11/26 04:39:31;;;;;;;10.40;6.85;;;5.40;99.90;;;;;;5010416;28;20228;-80
2022/11/26 04:41:57;;;;;;;12.18;8.60;;;5.40;99.90;;;;;;5018256;28;20783;-80
2022/11/26 04:44:23;;;;;;;10.23;6.90;;;5.40;99.90;;;;;;5018873;28;20072;-80
2022/11/26 04:46:48;;;;;;;11.95;7.65;;;5.40;99.90;;;;;;5015389;28;20064;-80
2022/11/26 04:49:14;;;;;;;10.90;7.43;;;5.40;99.90;;;;;;5016166;28;20088;-80
2022/11/26 04:51:40;;;;;;;12.55;7.78;;;5.30;99.90;;;;;;5023461;28;20053;-80
2022/11/26 04:54:05;;;;;;;13.77;8.38;;;5.30;99.90;;;;;;5016499;28;20045;-80
2022/11/26 04:56:31;;;;;;;13.85;8.18;;;5.30;99.90;;;;;;5018991;28;20053;-80
2022/11/26 04:58:57;;;;;;;11.48;8.35;;;5.30;99.90;;;;;;5018079;28;20042;-80
2022/11/26 05:01:23;;;;;;;16.05;8.57;;;5.80;99.90;;;;;;5017229;28;20783;-80
2022/11/26 05:03:49;;;;;;;12.32;7.75;;;6.40;99.90;;;;;;5018726;28;20796;-80
2022/11/26 05:06:15;;;;;;;18.10;9.30;;;5.20;99.90;;;;;;5018179;28;20053;-80
2022/11/26 05:08:40;;;;;;;13.82;8.63;;;5.90;99.90;;;;;;5018316;28;20581;-80
2022/11/26 05:11:06;;;;;;;13.55;8.27;;;6.40;99.90;;;;;;5009957;28;20068;-80
2022/11/26 05:13:32;;;;;;;14.30;8.80;;;5.20;99.90;;;;;;5014491;28;20049;-80
2022/11/26 05:15:57;;;;;;;12.90;8.40;;;5.20;99.90;;;;;;5016959;28;20060;-80
2022/11/26 05:18:24;;;;;;;13.73;8.18;;;5.20;99.90;;;;;;5018272;28;20041;-80
2022/11/26 05:20:50;;;;;;;14.85;8.30;;;5.60;99.90;;;;;;5018121;28;20877;-80
2022/11/26 05:23:16;;;;;;;15.20;7.97;;;4.30;99.90;;;;;;5017681;28;20236;-80
2022/11/26 05:25:41;;;;;;;16.33;8.45;;;5.90;99.90;;;;;;5015122;28;20470;-80
2022/11/26 05:28:07;;;;;;;13.27;8.25;;;5.60;99.90;;;;;;5016475;28;20671;-80
2022/11/26 05:30:33;;;;;;;15.55;8.35;;;5.70;99.90;;;;;;5016498;28;20061;-80
2022/11/26 05:32:59;;;;;;;14.63;8.75;;;5.20;99.90;;;;;;5010473;28;20124;-80
2022/11/26 05:35:24;;;;;;;15.75;8.48;;;5.20;99.90;;;;;;5017624;28;20041;-80
2022/11/26 05:37:50;;;;;;;17.02;8.38;;;5.50;99.90;;;;;;5014170;28;20049;-80
2022/11/26 05:40:16;;;;;;;12.98;8.02;;;5.40;99.90;;;;;;5012968;28;20045;-80
2022/11/26 05:42:42;;;;;;;16.35;9.10;;;5.20;99.90;;;;;;5018375;28;20684;-80
2022/11/26 05:45:08;;;;;;;15.35;8.32;;;5.20;99.90;;;;;;5016025;28;20697;-80
2022/11/26 05:47:34;;;;;;;13.98;7.95;;;5.20;99.90;;;;;;5017896;28;20156;-80
2022/11/26 05:50:00;;;;;;;13.43;9.50;;;6.10;99.90;;;;;;5018217;28;20052;-80
2022/11/26 05:52:25;;;;;;;11.90;8.63;;;5.20;99.90;;;;;;5014327;28;20097;-80
2022/11/26 05:54:51;;;;;;;14.70;9.18;;;5.70;99.90;;;;;;5014230;28;20041;-80
2022/11/26 05:57:17;;;;;;;10.63;7.68;;;6.00;99.90;;;;;;5013383;28;20042;-80
2022/11/26 05:59:43;;;;;;;14.38;7.57;;;5.10;99.90;;;;;;5007707;28;20595;-80
2022/11/26 06:02:09;;;;;;;9.88;7.38;;;6.00;99.90;;;;;;5018365;28;20045;-80
2022/11/26 06:04:34;;;;;;;12.00;7.60;;;5.10;99.90;;;;;;5011262;28;20057;-80
2022/11/26 06:07:00;;;;;;;10.32;7.57;;;5.10;99.90;;;;;;5017132;28;20065;-80
2022/11/26 06:09:26;;;;;;;14.02;8.95;;;5.10;99.90;;;;;;5021422;28;20058;-80
2022/11/26 06:11:52;;;;;;;15.45;8.38;;;5.10;99.90;;;;;;5018426;28;20836;-80
2022/11/26 06:14:17;;;;;;;10.52;8.00;;;5.90;99.90;;;;;;5019785;28;20049;-80
2022/11/26 06:16:43;;;;;;;9.65;7.30;;;5.10;99.90;;;;;;5017803;28;20045;-80
2022/11/26 06:19:10;;;;;;;8.48;7.00;;;6.30;99.90;;;;;;5003265;28;20061;-80
2022/11/26 06:21:36;;;;;;;10.63;7.38;;;6.20;99.90;;;;;;5018912;28;20052;-80
2022/11/26 06:24:02;;;;;;;10.93;7.82;;;5.10;99.90;;;;;;5018552;28;20080;-80
2022/11/26 06:26:28;;;;;;;10.88;7.63;;;5.10;99.90;;;;;;5009204;28;20050;-80
2022/11/26 06:28:53;;;;;;;14.88;9.23;;;6.40;99.90;;;;;;5011130;28;20056;-80
2022/11/26 06:31:19;;;;;;;11.57;8.10;;;5.40;99.90;;;;;;5019520;28;20485;-80
2022/11/26 06:33:45;;;;;;;11.18;9.25;;;5.70;99.90;;;;;;5018260;28;20055;-79
2022/11/26 06:36:10;;;;;;;11.50;8.30;;;5.60;99.90;;;;;;5017426;28;20539;-79
2022/11/26 06:38:36;;;;;;;12.00;9.55;;;5.30;99.90;;;;;;5018733;28;20114;-80
2022/11/26 06:41:07;;;;;;;11.93;8.85;;;5.30;99.90;;;;;;5013687;28;20068;-80
2022/11/26 06:43:33;;;;;;;14.57;9.05;;;5.10;99.90;;;;;;5012428;28;20062;-80
2022/11/26 06:46:01;;;;;;;15.45;9.43;;;5.10;99.90;;;;;;5018277;28;20041;-80
2022/11/26 06:48:27;;;;;;;14.50;9.73;;;5.80;99.90;;;;;;5016910;28;20046;-80
2022/11/26 06:50:52;;;;;;;15.38;9.13;;;6.40;99.90;;;;;;5002101;28;20060;-80
2022/11/26 06:53:18;;;;;;;11.75;9.20;;;5.00;99.90;;;;;;5009422;28;20462;-80
2022/11/26 06:55:44;;;;;;;13.40;9.70;;;5.00;99.90;;;;;;5002767;28;20486;-80
2022/11/26 06:58:10;;;;;;;13.10;10.38;;;5.00;99.90;;;;;;5013750;28;20057;-80
2022/11/26 07:00:35;;;;;;;13.93;9.38;;;5.30;99.90;;;;;;5016494;28;20091;-80
2022/11/26 07:03:01;;;;;;;14.13;11.05;;;6.00;99.90;;;;;;5016693;28;20107;-80
2022/11/26 07:05:27;;;;;;;15.07;10.60;;;5.00;99.90;;;;;;5014713;28;20041;-80
2022/11/26 07:07:52;;;;;;;14.23;11.57;;;5.00;99.90;;;;;;5003211;28;20743;-80
2022/11/26 07:10:19;;;;;;;22.70;11.95;;;5.50;99.90;;;;;;5007571;28;20053;-80
2022/11/26 07:12:44;;;;;;;18.52;13.65;;;5.70;99.90;;;;;;5021013;28;20063;-80
2022/11/26 07:15:10;;;;;;;20.02;11.93;;;5.00;99.90;;;;;;5011670;28;20695;-80
2022/11/26 07:17:36;;;;;;;16.48;13.15;;;5.00;99.90;;;;;;5011769;28;20112;-80
2022/11/26 07:20:03;;;;;;;15.45;12.00;;;5.00;99.90;;;;;;4984469;28;20486;-80
2022/11/26 07:22:28;;;;;;;21.42;11.05;;;5.00;99.90;;;;;;5016024;28;20050;-79
2022/11/26 07:24:54;;;;;;;15.43;12.85;;;5.00;99.90;;;;;;5011446;28;20119;-80
2022/11/26 07:27:19;;;;;;;21.25;12.93;;;6.00;99.90;;;;;;5007775;28;20145;-79
2022/11/26 07:29:45;;;;;;;17.38;12.25;;;6.20;99.90;;;;;;5002594;28;20853;-80
2022/11/26 07:32:11;;;;;;;17.98;13.38;;;6.00;99.90;;;;;;4996156;28;20613;-79
2022/11/26 07:34:36;;;;;;;16.35;12.20;;;5.10;99.90;;;;;;5003573;28;20131;-79
2022/11/26 07:37:02;;;;;;;23.73;11.40;;;5.00;99.90;;;;;;5015982;28;20049;-79
2022/11/26 07:39:28;;;;;;;16.98;12.35;;;5.90;99.90;;;;;;5010814;28;20132;-80
2022/11/26 07:41:54;;;;;;;17.27;12.98;;;5.10;99.90;;;;;;5009057;28;20091;-79
2022/11/26 07:44:20;;;;;;;20.45;12.25;;;5.10;99.90;;;;;;5013191;28;20698;-79
2022/11/26 07:46:45;;;;;;;17.85;12.95;;;5.40;99.90;;;;;;5017706;28;20864;-81
2022/11/26 07:49:12;;;;;;;15.75;12.95;;;6.00;99.90;;;;;;5004039;28;20148;-79
2022/11/26 07:51:38;;;;;;;16.77;12.80;;;5.90;99.90;;;;;;5016459;28;20152;-79
2022/11/26 07:54:06;;;;;;;17.98;13.40;;;5.20;99.90;;;;;;5014283;28;20589;-79
2022/11/26 07:56:32;;;;;;;20.55;15.20;;;5.30;99.90;;;;;;5017073;28;20052;-79
2022/11/26 07:58:58;;;;;;;25.17;15.40;;;5.40;99.90;;;;;;5014139;28;20325;-78
2022/11/26 08:01:27;;;;;;;17.42;13.35;;;5.50;99.90;;;;;;5007749;28;20586;-78
2022/11/26 08:03:53;;;;;;;15.00;11.10;;;5.60;99.90;;;;;;5013838;28;20046;-78
2022/11/26 08:06:21;;;;;;;19.17;14.48;;;5.60;99.90;;;;;;5015617;28;20056;-78
2022/11/26 08:08:48;;;;;;;16.38;13.00;;;6.90;99.90;;;;;;5020313;28;20498;-78
2022/11/26 08:11:20;;;;;;;17.75;14.68;;;5.80;99.90;;;;;;5017510;28;20140;-78
2022/11/26 08:13:47;;;;;;;22.90;13.98;;;5.80;99.90;;;;;;5008973;28;20060;-78
2022/11/26 08:16:13;;;;;;;19.58;12.20;;;6.10;99.90;;;;;;5007383;28;20128;-79
2022/11/26 08:18:39;;;;;;;16.40;11.90;;;5.90;99.90;;;;;;5026313;28;20450;-78
2022/11/26 08:21:06;;;;;;;19.45;12.40;;;6.00;99.90;;;;;;5015592;28;20760;-78
2022/11/26 08:23:33;;;;;;;17.25;11.65;;;6.10;99.90;;;;;;5013495;28;20049;-78
2022/11/26 08:26:04;;;;;;;17.85;11.73;;;6.10;99.90;;;;;;5010193;28;20495;-78
2022/11/26 08:28:30;;;;;;;17.00;12.25;;;6.10;99.90;;;;;;5011852;28;20056;-78
2022/11/26 08:31:07;;;;;;;20.33;13.52;;;6.10;99.90;;;;;;5017330;28;20054;-78
2022/11/26 08:33:33;;;;;;;18.55;11.60;;;6.10;99.90;;;;;;5014758;28;20061;-79
2022/11/26 08:35:59;;;;;;;16.70;12.15;;;6.10;99.90;;;;;;5013025;28;20044;-79
2022/11/26 08:38:26;;;;;;;21.00;12.75;;;6.10;99.90;;;;;;5009330;28;20733;-79
2022/11/26 08:40:53;;;;;;;16.30;11.32;;;6.10;99.90;;;;;;5009946;28;20085;-78
2022/11/26 08:43:20;;;;;;;18.67;12.48;;;6.50;99.90;;;;;;5005322;28;20053;-78
2022/11/26 08:45:57;;;;;;;18.52;12.52;;;6.20;99.90;;;;;;5029245;28;20055;-78
2022/11/26 08:48:24;;;;;;;17.92;12.02;;;6.30;99.90;;;;;;5019032;28;20041;-78
2022/11/26 08:50:50;;;;;;;10.93;8.85;;;6.30;99.90;;;;;;5029298;28;20088;-78
2022/11/26 08:53:16;;;;;;;15.63;10.98;;;6.40;99.90;;;;;;5016671;28;20151;-78
2022/11/26 08:55:41;;;;;;;17.30;10.75;;;6.50;99.90;;;;;;5022418;28;20061;-78
2022/11/26 08:58:07;;;;;;;16.95;11.02;;;6.50;99.90;;;;;;5016138;28;20457;-78
2022/11/26 09:00:33;;;;;;;14.63;10.23;;;6.60;99.90;;;;;;5011771;28;20053;-78
2022/11/26 09:02:59;;;;;;;18.85;9.85;;;6.60;99.90;;;;;;5006744;28;20740;-78
2022/11/26 09:05:25;;;;;;;28.15;11.82;;;6.70;99.90;;;;;;5003568;28;20119;-78
2022/11/26 09:07:50;;;;;;;18.40;10.70;;;6.70;99.90;;;;;;5008766;28;20061;-78
2022/11/26 09:10:16;;;;;;;22.15;10.48;;;6.80;99.90;;;;;;5006563;28;20088;-78
2022/11/26 09:12:42;;;;;;;11.82;9.05;;;6.80;99.90;;;;;;5019000;28;20057;-78
2022/11/26 09:15:08;;;;;;;22.20;10.30;;;6.80;99.90;;;;;;5017575;28;20993;-78
2022/11/26 09:17:34;;;;;;;16.90;8.80;;;6.80;99.90;;;;;;5008397;28;20616;-79
2022/11/26 09:20:00;;;;;;;16.67;10.50;;;6.90;99.90;;;;;;5008932;28;22028;-78
2022/11/26 09:22:25;;;;;;;13.95;9.77;;;7.00;99.90;;;;;;5016773;28;20452;-78
2022/11/26 09:24:51;;;;;;;21.20;9.50;;;7.00;99.90;;;;;;5016501;28;20060;-78
2022/11/26 09:27:17;;;;;;;24.65;10.23;;;7.10;99.90;;;;;;5018799;28;20046;-77
2022/11/26 09:29:42;;;;;;;11.80;9.00;;;7.10;99.90;;;;;;5012336;28;20052;-81
2022/11/26 09:32:08;;;;;;;14.48;9.98;;;7.20;99.90;;;;;;5012916;28;20133;-79
2022/11/26 09:34:35;;;;;;;20.50;9.20;;;7.20;99.90;;;;;;5022555;28;20418;-78
2022/11/26 09:37:00;;;;;;;18.95;9.85;;;7.30;99.90;;;;;;5008438;28;20076;-78
2022/11/26 09:39:27;;;;;;;13.50;8.60;;;7.30;99.90;;;;;;5017182;28;20053;-79
2022/11/26 09:42:01;;;;;;;15.23;10.13;;;7.40;99.90;;;;;;5021621;28;20040;-78
2022/11/26 09:44:45;;;;;;;20.40;8.80;;;7.40;99.90;;;;;;5048357;28;20072;-79
2022/11/26 09:47:24;;;;;;;25.13;11.40;;;7.50;99.90;;;;;;5020830;28;20042;-80
2022/11/26 09:50:05;;;;;;;18.88;9.25;;;7.50;99.90;;;;;;5029152;28;20053;-79
2022/11/26 09:52:54;;;;;;;20.73;9.80;;;7.50;99.90;;;;;;5004353;28;20505;-78
2022/11/26 09:55:21;;;;;;;17.42;9.57;;;7.50;99.90;;;;;;4998042;28;20053;-78
2022/11/26 09:58:08;;;;;;;15.27;9.93;;;7.60;99.90;;;;;;5006883;28;20434;-78
2022/11/26 10:00:40;;;;;;;20.15;11.20;;;8.50;99.90;;;;;;5015689;28;20053;-78
2022/11/26 10:03:21;;;;;;;17.63;9.55;;;7.60;99.90;;;;;;5015925;28;20127;-78
2022/11/26 10:05:55;;;;;;;15.13;8.95;;;7.70;99.90;;;;;;5016904;28;20052;-78
2022/11/26 10:08:55;;;;;;;17.25;10.10;;;7.70;99.90;;;;;;5022708;28;20092;-79
2022/11/26 10:11:33;;;;;;;16.85;10.30;;;7.80;99.90;;;;;;5024350;28;20092;-77
2022/11/26 10:14:29;;;;;;;16.15;10.77;;;7.80;99.90;;;;;;5017773;28;20045;-78
2022/11/26 10:17:14;;;;;;;20.02;11.00;;;7.90;99.90;;;;;;5006556;28;20063;-79
2022/11/26 10:19:49;;;;;;;15.05;10.30;;;7.90;99.90;;;;;;5004674;28;20513;-79
2022/11/26 10:22:33;;;;;;;14.68;10.88;;;8.00;99.90;;;;;;5016250;28;20083;-79
2022/11/26 10:25:01;;;;;;;17.40;9.80;;;8.00;99.90;;;;;;5018217;28;20056;-79
2022/11/26 10:27:32;;;;;;;20.88;10.93;;;8.20;99.90;;;;;;5017460;28;20276;-78
2022/11/26 10:30:15;;;;;;;22.33;10.70;;;8.50;99.90;;;;;;5017165;28;20046;-79
2022/11/26 10:32:44;;;;;;;18.17;10.77;;;8.10;99.90;;;;;;5024341;28;20045;-79
2022/11/26 10:35:15;;;;;;;19.20;10.80;;;8.10;99.90;;;;;;5016680;28;20390;-79
2022/11/26 10:37:41;;;;;;;22.38;10.23;;;8.20;99.90;;;;;;5015920;28;20057;-79
2022/11/26 10:40:23;;;;;;;18.20;9.48;;;8.30;99.90;;;;;;5013828;28;20056;-78
2022/11/26 10:43:07;;;;;;;21.65;13.27;;;8.40;99.90;;;;;;5006212;28;20049;-78
2022/11/26 10:45:43;;;;;;;;;;;8.40;99.90;;;;;;5005476;28;20053;-79
2022/11/26 10:48:17;;;;;;;19.92;11.25;;;8.40;99.90;;;;;;5024112;28;19925;-79
2022/11/26 10:50:54;;;;;;;15.13;10.13;;;8.50;99.90;;;;;;5014541;28;20144;-79
2022/11/26 10:53:22;;;;;;;16.33;10.50;;;8.50;99.90;;;;;;5015900;28;20041;-79
2022/11/26 10:55:49;;;;;;;19.50;11.90;;;8.50;99.90;;;;;;5013764;28;20492;-79
2022/11/26 10:58:19;;;;;;;17.48;10.07;;;9.10;99.90;;;;;;5014685;28;20046;-80
2022/11/26 11:00:55;;;;;;;15.02;9.88;;;8.60;99.90;;;;;;5015425;28;20057;-79
2022/11/26 11:03:24;;;;;;;19.17;11.48;;;8.60;99.90;;;;;;5001293;28;20134;-78
2022/11/26 11:05:50;;;;;;;17.42;10.30;;;8.90;99.90;;;;;;5015539;28;20053;-78
2022/11/26 11:08:30;;;;;;;22.63;11.43;;;8.70;99.90;;;;;;5013881;28;20134;-78
2022/11/26 11:10:59;;;;;;;15.25;10.02;;;8.70;99.90;;;;;;5013279;28;20080;-78
2022/11/26 11:13:51;;;;;;;25.08;11.07;;;8.70;99.90;;;;;;5014799;28;20883;-78
2022/11/26 11:16:29;;;;;;;21.67;11.25;;;8.80;99.90;;;;;;5002924;28;20112;-78
2022/11/26 11:19:01;;;;;;;22.25;12.23;;;8.90;99.90;;;;;;5007166;28;20057;-78
2022/11/26 11:21:34;;;;;;;24.27;10.35;;;8.90;99.90;;;;;;5022612;28;20149;-77
2022/11/26 11:24:16;;;;;;;15.65;10.27;;;8.90;99.90;;;;;;5014559;28;20049;-78
2022/11/26 11:26:44;;;;;;;17.08;11.75;;;8.90;99.90;;;;;;5010823;28;20041;-78
2022/11/26 11:29:32;;;;;;;21.52;11.20;;;8.90;99.90;;;;;;5014015;28;20083;-78
2022/11/26 11:31:59;;;;;;;22.23;11.40;;;9.00;99.90;;;;;;5013505;28;20045;-78
2022/11/26 11:34:33;;;;;;;18.58;12.15;;;9.00;99.90;;;;;;5020535;28;20160;-78
2022/11/26 11:37:17;;;;;;;18.33;11.40;;;9.00;99.90;;;;;;5015023;28;20104;-78
2022/11/26 11:39:44;;;;;;;18.85;11.30;;;9.00;99.90;;;;;;5014131;28;20121;-78
2022/11/26 11:42:26;;;;;;;19.77;11.82;;;9.00;99.90;;;;;;5014620;28;20053;-78
2022/11/26 11:44:53;;;;;;;19.17;11.65;;;9.00;99.90;;;;;;5015037;28;20113;-79
2022/11/26 11:47:24;;;;;;;21.17;11.13;;;9.10;99.90;;;;;;5020907;28;20088;-78
2022/11/26 11:50:22;;;;;;;22.13;12.48;;;9.10;99.90;;;;;;5017841;28;20045;-78
2022/11/26 11:53:12;;;;;;;17.45;11.02;;;9.10;99.90;;;;;;4977547;28;20054;-78
2022/11/26 11:55:38;;;;;;;19.27;11.75;;;9.10;99.90;;;;;;5010443;28;20640;-78
2022/11/26 11:58:12;;;;;;;21.10;12.75;;;9.20;99.90;;;;;;5018567;28;20049;-77
2022/11/26 12:01:12;;;;;;;23.10;11.98;;;9.10;99.90;;;;;;5019002;28;20096;-78
2022/11/26 12:03:59;;;;;;;19.02;13.02;;;9.10;99.90;;;;;;5018648;28;20103;-77
2022/11/26 12:06:42;;;;;;;24.83;14.02;;;9.10;99.90;;;;;;5015318;28;20056;-77
2022/11/26 12:09:21;;;;;;;25.17;16.10;;;9.10;99.90;;;;;;5020920;28;20057;-77
2022/11/26 12:11:58;;;;;;;23.98;14.45;;;9.10;99.90;;;;;;5025586;28;20052;-78
2022/11/26 12:14:27;;;;;;;24.95;13.55;;;9.10;99.90;;;;;;5022872;28;20042;-79
2022/11/26 12:17:08;;;;;;;27.58;15.02;;;9.10;99.90;;;;;;5017458;28;20095;-78
2022/11/26 12:19:43;;;;;;;26.25;14.43;;;9.10;99.90;;;;;;5018757;28;20056;-78
2022/11/26 12:22:14;;;;;;;26.98;15.88;;;9.10;99.90;;;;;;5016724;28;20095;-77
2022/11/26 12:24:54;;;;;;;26.80;15.68;;;9.10;99.90;;;;;;5017385;28;20053;-79
2022/11/26 12:27:37;;;;;;;22.65;13.95;;;9.20;99.90;;;;;;5007489;28;20281;-78
2022/11/26 12:30:15;;;;;;;30.52;17.35;;;9.20;99.90;;;;;;5014720;28;20466;-78
2022/11/26 12:32:46;;;;;;;30.73;16.10;;;9.20;99.90;;;;;;5013453;28;20887;-78
2022/11/26 12:35:35;;;;;;;29.25;16.05;;;9.20;99.90;;;;;;5020337;28;20054;-78
2022/11/26 12:38:20;;;;;;;26.85;16.40;;;9.20;99.90;;;;;;5017753;28;20080;-78
2022/11/26 12:40:56;;;;;;;27.67;16.02;;;9.30;99.90;;;;;;5014742;28;20049;-78
2022/11/26 12:43:57;;;;;;;29.25;15.70;;;9.30;99.90;;;;;;5012062;28;20037;-78
2022/11/26 12:46:38;;;;;;;28.85;16.88;;;9.30;99.90;;;;;;5017802;28;20049;-78
2022/11/26 12:49:28;;;;;;;33.20;18.20;;;9.30;99.90;;;;;;5003012;28;21072;-79
2022/11/26 12:52:08;;;;;;;29.25;16.83;;;9.30;99.90;;;;;;5024294;28;20045;-78
2022/11/26 12:55:11;;;;;;;31.67;18.10;;;9.30;99.90;;;;;;5017890;28;20341;-75
2022/11/26 12:57:43;;;;;;;28.55;17.20;;;9.30;99.90;;;;;;5010086;28;20060;-77
2022/11/26 13:00:28;;;;;;;26.48;14.57;;;9.30;99.90;;;;;;5013011;28;20057;-78